sensor_id;sensor_type;location;lat;lon;timestamp;P1;durP1;ratioP1;P2;durP2;ratioP2
23394;SDS011;11870;53.084;18.206;2023-07-30T00:00:51;12.50;;;8.48;;
23394;SDS011;11870;53.084;18.206;2023-07-30T00:03:37;13.20;;;7.78;;
23394;SDS011;11870;53.084;18.206;2023-07-30T00:06:03;11.45;;;7.63;;
23394;SDS011;11870;53.084;18.206;2023-07-30T00:08:29;11.73;;;7.90;;
23394;SDS011;11870;53.084;18.206;2023-07-30T00:10:58;15.55;;;8.52;;
23394;SDS011;11870;53.084;18.206;2023-07-30T00:13:25;14.02;;;8.20;;
23394;SDS011;11870;53.084;18.206;2023-07-30T00:15:51;16.35;;;9.00;;
23394;SDS011;11870;53.084;18.206;2023-07-30T00:18:17;12.82;;;8.80;;
23394;SDS011;11870;53.084;18.206;2023-07-30T00:20:43;14.48;;;8.18;;
23394;SDS011;11870;53.084;18.206;2023-07-30T00:23:09;15.70;;;8.77;;
23394;SDS011;11870;53.084;18.206;2023-07-30T00:25:35;17.10;;;8.32;;
23394;SDS011;11870;53.084;18.206;2023-07-30T00:28:01;17.88;;;8.57;;
23394;SDS011;11870;53.084;18.206;2023-07-30T00:30:27;13.43;;;8.82;;
23394;SDS011;11870;53.084;18.206;2023-07-30T00:32:53;15.13;;;8.52;;
23394;SDS011;11870;53.084;18.206;2023-07-30T00:35:18;14.70;;;9.05;;
23394;SDS011;11870;53.084;18.206;2023-07-30T00:37:45;18.25;;;9.40;;
23394;SDS011;11870;53.084;18.206;2023-07-30T00:40:11;16.15;;;9.25;;
23394;SDS011;11870;53.084;18.206;2023-07-30T00:42:37;14.48;;;9.23;;
23394;SDS011;11870;53.084;18.206;2023-07-30T00:45:03;14.15;;;9.50;;
23394;SDS011;11870;53.084;18.206;2023-07-30T00:47:30;14.70;;;9.50;;
23394;SDS011;11870;53.084;18.206;2023-07-30T00:49:56;11.43;;;8.55;;
23394;SDS011;11870;53.084;18.206;2023-07-30T00:52:23;13.77;;;9.45;;
23394;SDS011;11870;53.084;18.206;2023-07-30T00:54:51;17.38;;;9.65;;
23394;SDS011;11870;53.084;18.206;2023-07-30T00:57:19;13.50;;;8.60;;
23394;SDS011;11870;53.084;18.206;2023-07-30T00:59:46;13.32;;;9.18;;
23394;SDS011;11870;53.084;18.206;2023-07-30T01:02:13;11.77;;;8.63;;
23394;SDS011;11870;53.084;18.206;2023-07-30T01:04:40;11.23;;;8.38;;
23394;SDS011;11870;53.084;18.206;2023-07-30T01:07:06;16.00;;;9.35;;
23394;SDS011;11870;53.084;18.206;2023-07-30T01:09:32;13.50;;;8.98;;
23394;SDS011;11870;53.084;18.206;2023-07-30T01:11:59;14.70;;;9.52;;
23394;SDS011;11870;53.084;18.206;2023-07-30T01:14:27;18.40;;;9.90;;
23394;SDS011;11870;53.084;18.206;2023-07-30T01:16:53;16.58;;;10.63;;
23394;SDS011;11870;53.084;18.206;2023-07-30T01:19:19;14.82;;;10.00;;
23394;SDS011;11870;53.084;18.206;2023-07-30T01:21:45;15.70;;;9.95;;
23394;SDS011;11870;53.084;18.206;2023-07-30T01:24:11;15.70;;;9.93;;
23394;SDS011;11870;53.084;18.206;2023-07-30T01:26:41;14.13;;;9.65;;
23394;SDS011;11870;53.084;18.206;2023-07-30T01:29:12;14.82;;;10.45;;
23394;SDS011;11870;53.084;18.206;2023-07-30T01:31:42;13.82;;;10.38;;
23394;SDS011;11870;53.084;18.206;2023-07-30T01:34:11;14.75;;;10.20;;
23394;SDS011;11870;53.084;18.206;2023-07-30T01:36:38;16.15;;;11.68;;
23394;SDS011;11870;53.084;18.206;2023-07-30T01:39:04;16.92;;;10.80;;
23394;SDS011;11870;53.084;18.206;2023-07-30T01:41:31;16.75;;;11.23;;
23394;SDS011;11870;53.084;18.206;2023-07-30T01:43:57;17.98;;;11.68;;
23394;SDS011;11870;53.084;18.206;2023-07-30T01:46:23;17.73;;;11.77;;
23394;SDS011;11870;53.084;18.206;2023-07-30T01:48:49;17.77;;;11.43;;
23394;SDS011;11870;53.084;18.206;2023-07-30T01:51:15;16.27;;;11.32;;
23394;SDS011;11870;53.084;18.206;2023-07-30T01:53:41;21.00;;;12.38;;
23394;SDS011;11870;53.084;18.206;2023-07-30T01:56:07;18.35;;;11.80;;
23394;SDS011;11870;53.084;18.206;2023-07-30T01:58:32;15.90;;;11.30;;
23394;SDS011;11870;53.084;18.206;2023-07-30T02:00:58;16.88;;;11.15;;
23394;SDS011;11870;53.084;18.206;2023-07-30T02:03:24;16.73;;;11.17;;
23394;SDS011;11870;53.084;18.206;2023-07-30T02:05:50;19.40;;;10.90;;
23394;SDS011;11870;53.084;18.206;2023-07-30T02:08:16;14.00;;;10.18;;
23394;SDS011;11870;53.084;18.206;2023-07-30T02:10:42;15.50;;;10.60;;
23394;SDS011;11870;53.084;18.206;2023-07-30T02:13:08;14.20;;;10.10;;
23394;SDS011;11870;53.084;18.206;2023-07-30T02:15:34;12.68;;;9.57;;
23394;SDS011;11870;53.084;18.206;2023-07-30T02:18:00;14.32;;;9.68;;
23394;SDS011;11870;53.084;18.206;2023-07-30T02:20:26;14.45;;;9.80;;
23394;SDS011;11870;53.084;18.206;2023-07-30T02:22:52;13.88;;;10.32;;
23394;SDS011;11870;53.084;18.206;2023-07-30T02:25:18;13.93;;;9.75;;
23394;SDS011;11870;53.084;18.206;2023-07-30T02:27:44;19.00;;;10.07;;
23394;SDS011;11870;53.084;18.206;2023-07-30T02:30:10;14.45;;;10.63;;
23394;SDS011;11870;53.084;18.206;2023-07-30T02:32:36;16.50;;;10.32;;
23394;SDS011;11870;53.084;18.206;2023-07-30T02:35:02;13.88;;;9.95;;
23394;SDS011;11870;53.084;18.206;2023-07-30T02:37:28;15.77;;;11.10;;
23394;SDS011;11870;53.084;18.206;2023-07-30T02:39:54;14.55;;;10.80;;
23394;SDS011;11870;53.084;18.206;2023-07-30T02:42:20;15.45;;;10.43;;
23394;SDS011;11870;53.084;18.206;2023-07-30T02:44:46;12.82;;;9.43;;
23394;SDS011;11870;53.084;18.206;2023-07-30T02:47:11;13.80;;;9.77;;
23394;SDS011;11870;53.084;18.206;2023-07-30T02:49:37;14.15;;;9.70;;
23394;SDS011;11870;53.084;18.206;2023-07-30T02:52:03;13.48;;;10.02;;
23394;SDS011;11870;53.084;18.206;2023-07-30T02:54:29;13.82;;;9.50;;
23394;SDS011;11870;53.084;18.206;2023-07-30T02:56:55;13.23;;;8.90;;
23394;SDS011;11870;53.084;18.206;2023-07-30T02:59:21;13.82;;;9.30;;
23394;SDS011;11870;53.084;18.206;2023-07-30T03:01:47;12.57;;;9.00;;
23394;SDS011;11870;53.084;18.206;2023-07-30T03:04:13;13.98;;;9.48;;
23394;SDS011;11870;53.084;18.206;2023-07-30T03:06:39;16.33;;;10.40;;
23394;SDS011;11870;53.084;18.206;2023-07-30T03:09:05;12.82;;;9.52;;
23394;SDS011;11870;53.084;18.206;2023-07-30T03:11:30;14.52;;;9.82;;
23394;SDS011;11870;53.084;18.206;2023-07-30T03:13:56;17.08;;;10.27;;
23394;SDS011;11870;53.084;18.206;2023-07-30T03:16:22;14.73;;;10.02;;
23394;SDS011;11870;53.084;18.206;2023-07-30T03:18:48;16.90;;;10.60;;
23394;SDS011;11870;53.084;18.206;2023-07-30T03:21:14;13.77;;;10.60;;
23394;SDS011;11870;53.084;18.206;2023-07-30T03:23:40;13.55;;;10.50;;
23394;SDS011;11870;53.084;18.206;2023-07-30T03:26:08;18.23;;;10.13;;
23394;SDS011;11870;53.084;18.206;2023-07-30T03:28:34;15.38;;;10.93;;
23394;SDS011;11870;53.084;18.206;2023-07-30T03:30:59;13.75;;;9.88;;
23394;SDS011;11870;53.084;18.206;2023-07-30T03:33:25;15.55;;;10.77;;
23394;SDS011;11870;53.084;18.206;2023-07-30T03:35:51;15.73;;;9.90;;
23394;SDS011;11870;53.084;18.206;2023-07-30T03:38:17;18.33;;;10.93;;
23394;SDS011;11870;53.084;18.206;2023-07-30T03:40:43;15.85;;;10.75;;
23394;SDS011;11870;53.084;18.206;2023-07-30T03:43:09;16.60;;;10.48;;
23394;SDS011;11870;53.084;18.206;2023-07-30T03:45:35;14.70;;;11.02;;
23394;SDS011;11870;53.084;18.206;2023-07-30T03:48:01;17.30;;;10.20;;
23394;SDS011;11870;53.084;18.206;2023-07-30T03:50:26;18.60;;;10.98;;
23394;SDS011;11870;53.084;18.206;2023-07-30T03:52:52;16.95;;;9.88;;
23394;SDS011;11870;53.084;18.206;2023-07-30T03:55:18;14.90;;;9.95;;
23394;SDS011;11870;53.084;18.206;2023-07-30T03:57:44;15.00;;;10.02;;
23394;SDS011;11870;53.084;18.206;2023-07-30T04:00:10;15.23;;;10.55;;
23394;SDS011;11870;53.084;18.206;2023-07-30T04:02:37;17.23;;;10.57;;
23394;SDS011;11870;53.084;18.206;2023-07-30T04:05:03;16.17;;;10.80;;
23394;SDS011;11870;53.084;18.206;2023-07-30T04:07:29;17.40;;;10.70;;
23394;SDS011;11870;53.084;18.206;2023-07-30T04:09:55;21.63;;;11.20;;
23394;SDS011;11870;53.084;18.206;2023-07-30T04:12:22;16.88;;;11.18;;
23394;SDS011;11870;53.084;18.206;2023-07-30T04:14:48;16.42;;;11.15;;
23394;SDS011;11870;53.084;18.206;2023-07-30T04:17:14;19.80;;;11.57;;
23394;SDS011;11870;53.084;18.206;2023-07-30T04:19:39;16.75;;;10.93;;
23394;SDS011;11870;53.084;18.206;2023-07-30T04:22:05;17.30;;;10.95;;
23394;SDS011;11870;53.084;18.206;2023-07-30T04:24:31;17.15;;;11.77;;
23394;SDS011;11870;53.084;18.206;2023-07-30T04:26:57;18.30;;;11.93;;
23394;SDS011;11870;53.084;18.206;2023-07-30T04:29:23;19.13;;;11.65;;
23394;SDS011;11870;53.084;18.206;2023-07-30T04:31:49;19.85;;;11.95;;
23394;SDS011;11870;53.084;18.206;2023-07-30T04:34:14;18.90;;;11.75;;
23394;SDS011;11870;53.084;18.206;2023-07-30T04:36:40;17.77;;;11.18;;
23394;SDS011;11870;53.084;18.206;2023-07-30T04:39:06;21.73;;;12.20;;
23394;SDS011;11870;53.084;18.206;2023-07-30T04:41:32;17.17;;;11.48;;
23394;SDS011;11870;53.084;18.206;2023-07-30T04:43:58;20.48;;;11.93;;
23394;SDS011;11870;53.084;18.206;2023-07-30T04:46:24;18.52;;;12.40;;
23394;SDS011;11870;53.084;18.206;2023-07-30T04:48:51;19.85;;;11.63;;
23394;SDS011;11870;53.084;18.206;2023-07-30T04:51:17;20.40;;;11.65;;
23394;SDS011;11870;53.084;18.206;2023-07-30T04:53:42;23.92;;;11.75;;
23394;SDS011;11870;53.084;18.206;2023-07-30T04:56:08;20.30;;;12.75;;
23394;SDS011;11870;53.084;18.206;2023-07-30T04:58:34;20.13;;;12.25;;
23394;SDS011;11870;53.084;18.206;2023-07-30T05:01:00;16.88;;;11.63;;
23394;SDS011;11870;53.084;18.206;2023-07-30T05:03:26;19.52;;;12.20;;
23394;SDS011;11870;53.084;18.206;2023-07-30T05:05:53;22.95;;;12.63;;
23394;SDS011;11870;53.084;18.206;2023-07-30T05:08:19;19.55;;;12.57;;
23394;SDS011;11870;53.084;18.206;2023-07-30T05:10:45;20.15;;;12.57;;
23394;SDS011;11870;53.084;18.206;2023-07-30T05:13:10;20.15;;;13.07;;
23394;SDS011;11870;53.084;18.206;2023-07-30T05:15:38;20.08;;;13.18;;
23394;SDS011;11870;53.084;18.206;2023-07-30T05:18:04;22.00;;;14.20;;
23394;SDS011;11870;53.084;18.206;2023-07-30T05:20:30;26.27;;;14.98;;
23394;SDS011;11870;53.084;18.206;2023-07-30T05:22:56;21.23;;;13.65;;
23394;SDS011;11870;53.084;18.206;2023-07-30T05:25:22;22.40;;;13.25;;
23394;SDS011;11870;53.084;18.206;2023-07-30T05:27:48;22.85;;;14.15;;
23394;SDS011;11870;53.084;18.206;2023-07-30T05:30:14;27.60;;;14.35;;
23394;SDS011;11870;53.084;18.206;2023-07-30T05:32:40;23.92;;;13.98;;
23394;SDS011;11870;53.084;18.206;2023-07-30T05:35:06;26.88;;;14.55;;
23394;SDS011;11870;53.084;18.206;2023-07-30T05:37:32;20.02;;;13.60;;
23394;SDS011;11870;53.084;18.206;2023-07-30T05:39:58;23.02;;;14.02;;
23394;SDS011;11870;53.084;18.206;2023-07-30T05:42:24;23.63;;;14.23;;
23394;SDS011;11870;53.084;18.206;2023-07-30T05:44:50;19.35;;;12.63;;
23394;SDS011;11870;53.084;18.206;2023-07-30T05:47:16;17.83;;;12.85;;
23394;SDS011;11870;53.084;18.206;2023-07-30T05:49:42;23.33;;;13.25;;
23394;SDS011;11870;53.084;18.206;2023-07-30T05:52:07;18.35;;;12.60;;
23394;SDS011;11870;53.084;18.206;2023-07-30T05:54:33;18.38;;;12.55;;
23394;SDS011;11870;53.084;18.206;2023-07-30T05:56:59;19.33;;;12.48;;
23394;SDS011;11870;53.084;18.206;2023-07-30T05:59:25;17.50;;;12.38;;
23394;SDS011;11870;53.084;18.206;2023-07-30T06:01:51;18.52;;;12.50;;
23394;SDS011;11870;53.084;18.206;2023-07-30T06:04:17;21.70;;;11.80;;
23394;SDS011;11870;53.084;18.206;2023-07-30T06:06:43;18.13;;;11.88;;
23394;SDS011;11870;53.084;18.206;2023-07-30T06:09:09;16.83;;;12.10;;
23394;SDS011;11870;53.084;18.206;2023-07-30T06:11:36;16.45;;;10.98;;
23394;SDS011;11870;53.084;18.206;2023-07-30T06:14:02;16.85;;;11.00;;
23394;SDS011;11870;53.084;18.206;2023-07-30T06:16:28;18.25;;;11.93;;
23394;SDS011;11870;53.084;18.206;2023-07-30T06:18:54;19.00;;;11.82;;
23394;SDS011;11870;53.084;18.206;2023-07-30T06:21:20;13.57;;;10.30;;
23394;SDS011;11870;53.084;18.206;2023-07-30T06:23:46;15.23;;;10.52;;
23394;SDS011;11870;53.084;18.206;2023-07-30T06:26:11;14.50;;;10.77;;
23394;SDS011;11870;53.084;18.206;2023-07-30T06:28:38;12.70;;;10.32;;
23394;SDS011;11870;53.084;18.206;2023-07-30T06:31:03;14.32;;;10.23;;
23394;SDS011;11870;53.084;18.206;2023-07-30T06:33:30;11.98;;;9.38;;
23394;SDS011;11870;53.084;18.206;2023-07-30T06:35:56;16.10;;;10.32;;
23394;SDS011;11870;53.084;18.206;2023-07-30T06:38:22;14.82;;;9.70;;
23394;SDS011;11870;53.084;18.206;2023-07-30T06:40:48;12.75;;;9.73;;
23394;SDS011;11870;53.084;18.206;2023-07-30T06:43:14;12.90;;;9.60;;
23394;SDS011;11870;53.084;18.206;2023-07-30T06:45:39;14.32;;;9.60;;
23394;SDS011;11870;53.084;18.206;2023-07-30T06:48:05;13.15;;;8.70;;
23394;SDS011;11870;53.084;18.206;2023-07-30T06:50:31;11.55;;;8.90;;
23394;SDS011;11870;53.084;18.206;2023-07-30T06:52:57;12.50;;;8.90;;
23394;SDS011;11870;53.084;18.206;2023-07-30T06:55:23;13.45;;;8.57;;
23394;SDS011;11870;53.084;18.206;2023-07-30T06:57:49;11.93;;;8.82;;
23394;SDS011;11870;53.084;18.206;2023-07-30T07:00:15;9.95;;;7.85;;
23394;SDS011;11870;53.084;18.206;2023-07-30T07:02:49;10.95;;;8.48;;
23394;SDS011;11870;53.084;18.206;2023-07-30T07:05:16;9.52;;;7.78;;
23394;SDS011;11870;53.084;18.206;2023-07-30T07:07:42;10.85;;;8.10;;
23394;SDS011;11870;53.084;18.206;2023-07-30T07:10:08;9.93;;;8.35;;
23394;SDS011;11870;53.084;18.206;2023-07-30T07:12:36;8.75;;;7.43;;
23394;SDS011;11870;53.084;18.206;2023-07-30T07:15:04;10.07;;;8.43;;
23394;SDS011;11870;53.084;18.206;2023-07-30T07:17:31;9.57;;;8.20;;
23394;SDS011;11870;53.084;18.206;2023-07-30T07:19:59;11.10;;;8.18;;
23394;SDS011;11870;53.084;18.206;2023-07-30T07:22:25;11.70;;;8.95;;
23394;SDS011;11870;53.084;18.206;2023-07-30T07:24:51;12.55;;;9.45;;
23394;SDS011;11870;53.084;18.206;2023-07-30T07:27:18;9.43;;;8.27;;
23394;SDS011;11870;53.084;18.206;2023-07-30T07:29:44;10.02;;;7.22;;
23394;SDS011;11870;53.084;18.206;2023-07-30T07:32:10;12.15;;;7.60;;
23394;SDS011;11870;53.084;18.206;2023-07-30T07:34:36;13.23;;;7.95;;
23394;SDS011;11870;53.084;18.206;2023-07-30T07:37:02;8.13;;;7.25;;
23394;SDS011;11870;53.084;18.206;2023-07-30T07:39:28;8.80;;;7.95;;
23394;SDS011;11870;53.084;18.206;2023-07-30T07:41:55;10.45;;;7.82;;
23394;SDS011;11870;53.084;18.206;2023-07-30T07:44:21;9.60;;;7.60;;
23394;SDS011;11870;53.084;18.206;2023-07-30T07:46:48;9.40;;;8.02;;
23394;SDS011;11870;53.084;18.206;2023-07-30T07:49:13;10.10;;;8.23;;
23394;SDS011;11870;53.084;18.206;2023-07-30T07:51:39;8.55;;;7.50;;
23394;SDS011;11870;53.084;18.206;2023-07-30T07:54:05;9.73;;;7.20;;
23394;SDS011;11870;53.084;18.206;2023-07-30T07:56:31;9.02;;;8.07;;
23394;SDS011;11870;53.084;18.206;2023-07-30T07:58:58;8.48;;;7.03;;
23394;SDS011;11870;53.084;18.206;2023-07-30T08:01:24;10.45;;;8.05;;
23394;SDS011;11870;53.084;18.206;2023-07-30T08:03:50;8.70;;;7.53;;
23394;SDS011;11870;53.084;18.206;2023-07-30T08:06:16;11.80;;;7.30;;
23394;SDS011;11870;53.084;18.206;2023-07-30T08:08:42;9.50;;;7.25;;
23394;SDS011;11870;53.084;18.206;2023-07-30T08:11:08;7.45;;;6.72;;
23394;SDS011;11870;53.084;18.206;2023-07-30T08:13:34;8.13;;;6.85;;
23394;SDS011;11870;53.084;18.206;2023-07-30T08:16:01;7.22;;;6.43;;
23394;SDS011;11870;53.084;18.206;2023-07-30T08:18:27;7.72;;;6.60;;
23394;SDS011;11870;53.084;18.206;2023-07-30T08:20:54;8.10;;;6.75;;
23394;SDS011;11870;53.084;18.206;2023-07-30T08:23:20;6.72;;;6.10;;
23394;SDS011;11870;53.084;18.206;2023-07-30T08:25:46;10.75;;;7.00;;
23394;SDS011;11870;53.084;18.206;2023-07-30T08:28:12;8.95;;;6.95;;
23394;SDS011;11870;53.084;18.206;2023-07-30T08:30:38;10.32;;;7.38;;
23394;SDS011;11870;53.084;18.206;2023-07-30T08:33:03;9.73;;;6.18;;
23394;SDS011;11870;53.084;18.206;2023-07-30T08:35:30;7.68;;;6.40;;
23394;SDS011;11870;53.084;18.206;2023-07-30T08:37:55;8.32;;;6.25;;
23394;SDS011;11870;53.084;18.206;2023-07-30T08:40:22;8.80;;;6.10;;
23394;SDS011;11870;53.084;18.206;2023-07-30T08:42:51;8.88;;;6.40;;
23394;SDS011;11870;53.084;18.206;2023-07-30T08:45:17;9.52;;;6.00;;
23394;SDS011;11870;53.084;18.206;2023-07-30T08:47:44;7.60;;;6.20;;
23394;SDS011;11870;53.084;18.206;2023-07-30T08:50:11;6.15;;;5.53;;
23394;SDS011;11870;53.084;18.206;2023-07-30T08:52:36;6.07;;;5.47;;
23394;SDS011;11870;53.084;18.206;2023-07-30T08:55:03;6.65;;;5.97;;
23394;SDS011;11870;53.084;18.206;2023-07-30T08:57:30;7.80;;;5.28;;
23394;SDS011;11870;53.084;18.206;2023-07-30T09:00:06;6.20;;;5.38;;
23394;SDS011;11870;53.084;18.206;2023-07-30T09:02:34;7.35;;;5.50;;
23394;SDS011;11870;53.084;18.206;2023-07-30T09:05:05;7.95;;;5.32;;
23394;SDS011;11870;53.084;18.206;2023-07-30T09:07:32;4.82;;;4.43;;
23394;SDS011;11870;53.084;18.206;2023-07-30T09:09:58;5.38;;;4.80;;
23394;SDS011;11870;53.084;18.206;2023-07-30T09:12:30;4.95;;;4.50;;
23394;SDS011;11870;53.084;18.206;2023-07-30T09:15:04;5.40;;;4.47;;
23394;SDS011;11870;53.084;18.206;2023-07-30T09:17:31;4.40;;;3.97;;
23394;SDS011;11870;53.084;18.206;2023-07-30T09:20:01;5.80;;;4.75;;
23394;SDS011;11870;53.084;18.206;2023-07-30T09:22:30;4.70;;;4.30;;
23394;SDS011;11870;53.084;18.206;2023-07-30T09:25:07;4.78;;;4.38;;
23394;SDS011;11870;53.084;18.206;2023-07-30T09:27:34;4.95;;;4.45;;
23394;SDS011;11870;53.084;18.206;2023-07-30T09:30:00;4.88;;;4.32;;
23394;SDS011;11870;53.084;18.206;2023-07-30T09:32:28;5.07;;;4.65;;
23394;SDS011;11870;53.084;18.206;2023-07-30T09:35:03;5.13;;;4.72;;
23394;SDS011;11870;53.084;18.206;2023-07-30T09:37:40;5.05;;;4.45;;
23394;SDS011;11870;53.084;18.206;2023-07-30T09:40:07;5.00;;;4.47;;
23394;SDS011;11870;53.084;18.206;2023-07-30T09:42:46;5.50;;;4.60;;
23394;SDS011;11870;53.084;18.206;2023-07-30T09:45:21;5.00;;;4.60;;
23394;SDS011;11870;53.084;18.206;2023-07-30T09:47:49;5.10;;;4.20;;
23394;SDS011;11870;53.084;18.206;2023-07-30T09:50:18;5.50;;;5.00;;
23394;SDS011;11870;53.084;18.206;2023-07-30T09:52:44;5.68;;;4.75;;
23394;SDS011;11870;53.084;18.206;2023-07-30T09:55:11;5.93;;;4.60;;
23394;SDS011;11870;53.084;18.206;2023-07-30T09:57:37;5.78;;;4.38;;
23394;SDS011;11870;53.084;18.206;2023-07-30T10:00:04;5.88;;;4.18;;
23394;SDS011;11870;53.084;18.206;2023-07-30T10:02:33;4.88;;;3.88;;
23394;SDS011;11870;53.084;18.206;2023-07-30T10:05:05;9.02;;;4.00;;
23394;SDS011;11870;53.084;18.206;2023-07-30T10:07:35;7.78;;;3.72;;
23394;SDS011;11870;53.084;18.206;2023-07-30T10:10:04;15.55;;;4.00;;
23394;SDS011;11870;53.084;18.206;2023-07-30T10:12:31;4.15;;;3.83;;
23394;SDS011;11870;53.084;18.206;2023-07-30T10:15:00;6.88;;;3.70;;
23394;SDS011;11870;53.084;18.206;2023-07-30T10:17:26;4.18;;;3.85;;
23394;SDS011;11870;53.084;18.206;2023-07-30T10:19:54;4.53;;;3.60;;
23394;SDS011;11870;53.084;18.206;2023-07-30T10:22:21;6.85;;;3.80;;
23394;SDS011;11870;53.084;18.206;2023-07-30T10:24:55;3.53;;;3.05;;
23394;SDS011;11870;53.084;18.206;2023-07-30T10:27:25;7.05;;;3.80;;
23394;SDS011;11870;53.084;18.206;2023-07-30T10:30:08;6.05;;;3.75;;
23394;SDS011;11870;53.084;18.206;2023-07-30T10:32:39;3.65;;;3.33;;
23394;SDS011;11870;53.084;18.206;2023-07-30T10:35:05;5.25;;;3.70;;
23394;SDS011;11870;53.084;18.206;2023-07-30T10:37:31;4.18;;;3.45;;
23394;SDS011;11870;53.084;18.206;2023-07-30T10:39:57;3.80;;;3.47;;
23394;SDS011;11870;53.084;18.206;2023-07-30T10:42:23;7.78;;;3.63;;
23394;SDS011;11870;53.084;18.206;2023-07-30T10:44:49;3.63;;;3.10;;
23394;SDS011;11870;53.084;18.206;2023-07-30T10:47:15;8.48;;;3.58;;
23394;SDS011;11870;53.084;18.206;2023-07-30T10:49:41;6.75;;;3.58;;
23394;SDS011;11870;53.084;18.206;2023-07-30T10:52:09;5.47;;;4.13;;
23394;SDS011;11870;53.084;18.206;2023-07-30T10:54:36;3.75;;;3.40;;
23394;SDS011;11870;53.084;18.206;2023-07-30T10:57:02;5.15;;;3.70;;
23394;SDS011;11870;53.084;18.206;2023-07-30T10:59:36;4.20;;;3.80;;
23394;SDS011;11870;53.084;18.206;2023-07-30T11:02:02;5.20;;;3.65;;
23394;SDS011;11870;53.084;18.206;2023-07-30T11:04:29;4.03;;;3.63;;
23394;SDS011;11870;53.084;18.206;2023-07-30T11:06:59;3.53;;;3.20;;
23394;SDS011;11870;53.084;18.206;2023-07-30T11:09:26;4.28;;;3.15;;
23394;SDS011;11870;53.084;18.206;2023-07-30T11:11:54;3.70;;;3.40;;
23394;SDS011;11870;53.084;18.206;2023-07-30T11:14:21;5.47;;;2.97;;
23394;SDS011;11870;53.084;18.206;2023-07-30T11:16:51;3.47;;;3.13;;
23394;SDS011;11870;53.084;18.206;2023-07-30T11:19:19;5.68;;;3.20;;
23394;SDS011;11870;53.084;18.206;2023-07-30T11:21:46;3.55;;;3.25;;
23394;SDS011;11870;53.084;18.206;2023-07-30T11:24:13;3.72;;;3.42;;
23394;SDS011;11870;53.084;18.206;2023-07-30T11:26:39;3.67;;;3.28;;
23394;SDS011;11870;53.084;18.206;2023-07-30T11:31:42;3.47;;;3.17;;
23394;SDS011;11870;53.084;18.206;2023-07-30T11:34:09;4.78;;;3.78;;
23394;SDS011;11870;53.084;18.206;2023-07-30T11:36:36;6.28;;;3.38;;
23394;SDS011;11870;53.084;18.206;2023-07-30T11:39:03;3.80;;;3.30;;
23394;SDS011;11870;53.084;18.206;2023-07-30T11:41:29;4.90;;;3.10;;
23394;SDS011;11870;53.084;18.206;2023-07-30T11:43:55;3.47;;;3.15;;
23394;SDS011;11870;53.084;18.206;2023-07-30T11:46:21;4.43;;;3.30;;
23394;SDS011;11870;53.084;18.206;2023-07-30T11:48:49;4.13;;;3.40;;
23394;SDS011;11870;53.084;18.206;2023-07-30T11:51:23;4.63;;;3.47;;
23394;SDS011;11870;53.084;18.206;2023-07-30T11:53:54;3.40;;;3.10;;
23394;SDS011;11870;53.084;18.206;2023-07-30T11:56:27;4.55;;;3.38;;
23394;SDS011;11870;53.084;18.206;2023-07-30T11:58:59;3.30;;;2.72;;
23394;SDS011;11870;53.084;18.206;2023-07-30T12:01:26;3.15;;;2.85;;
23394;SDS011;11870;53.084;18.206;2023-07-30T12:03:54;4.00;;;2.85;;
23394;SDS011;11870;53.084;18.206;2023-07-30T12:06:24;2.83;;;2.63;;
23394;SDS011;11870;53.084;18.206;2023-07-30T12:09:13;3.10;;;2.80;;
23394;SDS011;11870;53.084;18.206;2023-07-30T12:14:12;4.10;;;2.42;;
23394;SDS011;11870;53.084;18.206;2023-07-30T12:16:38;3.10;;;2.63;;
23394;SDS011;11870;53.084;18.206;2023-07-30T12:19:04;2.97;;;2.35;;
23394;SDS011;11870;53.084;18.206;2023-07-30T12:21:30;2.40;;;2.20;;
23394;SDS011;11870;53.084;18.206;2023-07-30T12:23:56;2.17;;;1.92;;
23394;SDS011;11870;53.084;18.206;2023-07-30T12:26:22;2.65;;;2.40;;
23394;SDS011;11870;53.084;18.206;2023-07-30T12:28:48;2.88;;;2.22;;
23394;SDS011;11870;53.084;18.206;2023-07-30T12:31:14;2.40;;;2.20;;
23394;SDS011;11870;53.084;18.206;2023-07-30T12:33:44;3.72;;;2.13;;
23394;SDS011;11870;53.084;18.206;2023-07-30T12:36:10;2.50;;;2.30;;
23394;SDS011;11870;53.084;18.206;2023-07-30T12:38:36;2.10;;;1.90;;
23394;SDS011;11870;53.084;18.206;2023-07-30T12:41:01;3.50;;;2.20;;
23394;SDS011;11870;53.084;18.206;2023-07-30T12:43:28;3.95;;;2.00;;
23394;SDS011;11870;53.084;18.206;2023-07-30T12:45:53;2.03;;;1.83;;
23394;SDS011;11870;53.084;18.206;2023-07-30T12:48:20;2.95;;;2.20;;
23394;SDS011;11870;53.084;18.206;2023-07-30T12:50:45;3.10;;;2.13;;
23394;SDS011;11870;53.084;18.206;2023-07-30T12:53:11;2.10;;;1.90;;
23394;SDS011;11870;53.084;18.206;2023-07-30T12:55:37;5.78;;;2.17;;
23394;SDS011;11870;53.084;18.206;2023-07-30T12:58:04;3.00;;;2.38;;
23394;SDS011;11870;53.084;18.206;2023-07-30T13:00:30;2.65;;;2.20;;
23394;SDS011;11870;53.084;18.206;2023-07-30T13:02:57;4.20;;;2.40;;
23394;SDS011;11870;53.084;18.206;2023-07-30T13:05:22;2.95;;;2.45;;
23394;SDS011;11870;53.084;18.206;2023-07-30T13:07:49;3.35;;;2.30;;
23394;SDS011;11870;53.084;18.206;2023-07-30T13:10:14;3.03;;;2.38;;
23394;SDS011;11870;53.084;18.206;2023-07-30T13:12:40;2.47;;;2.25;;
23394;SDS011;11870;53.084;18.206;2023-07-30T13:15:07;2.58;;;2.17;;
23394;SDS011;11870;53.084;18.206;2023-07-30T13:17:33;3.00;;;2.60;;
23394;SDS011;11870;53.084;18.206;2023-07-30T13:19:59;4.65;;;2.38;;
23394;SDS011;11870;53.084;18.206;2023-07-30T13:22:25;3.05;;;2.40;;
23394;SDS011;11870;53.084;18.206;2023-07-30T13:24:51;4.05;;;2.30;;
23394;SDS011;11870;53.084;18.206;2023-07-30T13:27:17;5.18;;;2.35;;
23394;SDS011;11870;53.084;18.206;2023-07-30T13:29:43;2.50;;;2.30;;
23394;SDS011;11870;53.084;18.206;2023-07-30T13:32:10;4.03;;;2.30;;
23394;SDS011;11870;53.084;18.206;2023-07-30T13:34:36;2.70;;;2.50;;
23394;SDS011;11870;53.084;18.206;2023-07-30T13:37:02;4.00;;;2.40;;
23394;SDS011;11870;53.084;18.206;2023-07-30T13:39:28;2.47;;;2.22;;
23394;SDS011;11870;53.084;18.206;2023-07-30T13:41:55;2.88;;;2.47;;
23394;SDS011;11870;53.084;18.206;2023-07-30T13:44:21;2.50;;;2.30;;
23394;SDS011;11870;53.084;18.206;2023-07-30T13:46:47;2.25;;;2.05;;
23394;SDS011;11870;53.084;18.206;2023-07-30T13:49:12;2.40;;;2.20;;
23394;SDS011;11870;53.084;18.206;2023-07-30T13:51:38;2.30;;;2.10;;
23394;SDS011;11870;53.084;18.206;2023-07-30T13:54:04;2.83;;;2.15;;
23394;SDS011;11870;53.084;18.206;2023-07-30T13:56:33;2.83;;;2.10;;
23394;SDS011;11870;53.084;18.206;2023-07-30T13:58:59;4.85;;;2.00;;
23394;SDS011;11870;53.084;18.206;2023-07-30T14:01:25;2.45;;;2.10;;
23394;SDS011;11870;53.084;18.206;2023-07-30T14:03:51;2.95;;;1.90;;
23394;SDS011;11870;53.084;18.206;2023-07-30T14:06:17;2.13;;;1.92;;
23394;SDS011;11870;53.084;18.206;2023-07-30T14:08:43;1.98;;;1.88;;
23394;SDS011;11870;53.084;18.206;2023-07-30T14:11:09;2.88;;;1.90;;
23394;SDS011;11870;53.084;18.206;2023-07-30T14:13:35;2.40;;;2.03;;
23394;SDS011;11870;53.084;18.206;2023-07-30T14:16:01;2.25;;;2.00;;
23394;SDS011;11870;53.084;18.206;2023-07-30T14:18:27;2.88;;;1.95;;
23394;SDS011;11870;53.084;18.206;2023-07-30T14:20:53;2.40;;;1.90;;
23394;SDS011;11870;53.084;18.206;2023-07-30T14:23:18;3.50;;;1.92;;
23394;SDS011;11870;53.084;18.206;2023-07-30T14:25:45;2.20;;;2.00;;